Aviation Digital Data Service (ADDS)

Output produced by METARs form (1018 UTC 26 May 2019)
found at http://www.aviationweather.gov/metar/data/
 
TAF AMD EGLL 260639Z 2606/2712 24008KT 9999 FEW045 
     TEMPO 2606/2610 BKN012 
     TEMPO 2610/2617 8000 -RA BKN012 
     PROB30 
     TEMPO 2610/2612 4000 RADZ 
     PROB30 
     TEMPO 2614/2616 SHRA 
     BECMG 2703/2706 30010KT